SWR5VL LIPE-LSZH
Flight info
| Callsign | SWR5VL |
|---|---|
| Flight time | 1h 10m |
| Altitude | 32000 |
| Route | LUMAV L12 KOPER DCT ALBET DCT ATPED DCT RESIA DCT SOPER Z50 KELIP |
| Aircraft | A320/M-SDE3FGHIRWY/LB1 |
Departure
| Time | 2026-05-05 18:29 |
|---|---|
| Airport | Bologna Guglielmo Marconi Airport (LIPE) |
Arrival
| Time | 2026-05-05 19:39 |
|---|---|
| Airport | Zürich Airport (LSZH) |
| Time | Latitude | Longitude | Altitude | Speed | Heading |
|---|---|---|---|---|---|
| 2026-05-05 18:09 | 44.53288 | 11.28704 | 127 ft | 0 kts | 206° |
| 2026-05-05 18:20 | 44.53306 | 11.28715 | 126 ft | 4 kts | 198° |
| 2026-05-05 18:21 | 44.53331 | 11.28722 | 129 ft | 4 kts | 173° |
| 2026-05-05 18:21 | 44.53353 | 11.28710 | 127 ft | 3 kts | 120° |
| 2026-05-05 18:21 | 44.53356 | 11.28701 | 127 ft | 0 kts | 117° |
| 2026-05-05 18:24 | 44.53355 | 11.28704 | 130 ft | 3 kts | 117° |
| 2026-05-05 18:24 | 44.53336 | 11.28758 | 130 ft | 6 kts | 114° |
| 2026-05-05 18:24 | 44.53349 | 11.28813 | 130 ft | 9 kts | 57° |
| 2026-05-05 18:24 | 44.53321 | 11.28937 | 129 ft | 17 kts | 117° |
| 2026-05-05 18:25 | 44.53268 | 11.29084 | 127 ft | 17 kts | 116° |
| 2026-05-05 18:25 | 44.53235 | 11.29176 | 130 ft | 15 kts | 116° |
| 2026-05-05 18:25 | 44.53175 | 11.29345 | 129 ft | 14 kts | 117° |
| 2026-05-05 18:25 | 44.53126 | 11.29479 | 129 ft | 16 kts | 117° |
| 2026-05-05 18:26 | 44.53077 | 11.29617 | 130 ft | 17 kts | 117° |
| 2026-05-05 18:26 | 44.53019 | 11.29775 | 130 ft | 18 kts | 117° |
| 2026-05-05 18:26 | 44.52963 | 11.29931 | 128 ft | 18 kts | 116° |
| 2026-05-05 18:26 | 44.52909 | 11.30083 | 129 ft | 17 kts | 116° |
| 2026-05-05 18:27 | 44.52874 | 11.30227 | 130 ft | 14 kts | 89° |
| 2026-05-05 18:27 | 44.52930 | 11.30328 | 128 ft | 15 kts | 25° |
| 2026-05-05 18:27 | 44.53017 | 11.30334 | 126 ft | 12 kts | 305° |
| 2026-05-05 18:27 | 44.53028 | 11.30300 | 125 ft | 0 kts | 296° |
| 2026-05-05 18:28 | 44.53205 | 11.29810 | 129 ft | 91 kts | 297° |
| 2026-05-05 18:28 | 44.53585 | 11.28754 | 127 ft | 150 kts | 296° |
| 2026-05-05 18:28 | 44.54076 | 11.27361 | 589 ft | 160 kts | 298° |
| 2026-05-05 18:29 | 44.54580 | 11.25954 | 1321 ft | 163 kts | 299° |
| 2026-05-05 18:29 | 44.55130 | 11.24458 | 1900 ft | 184 kts | 299° |
| 2026-05-05 18:29 | 44.55745 | 11.22766 | 2288 ft | 206 kts | 298° |
| 2026-05-05 18:29 | 44.56432 | 11.20863 | 2644 ft | 231 kts | 297° |
| 2026-05-05 18:30 | 44.57193 | 11.18737 | 3136 ft | 256 kts | 295° |
| 2026-05-05 18:30 | 44.58009 | 11.16441 | 3923 ft | 266 kts | 295° |
| 2026-05-05 18:30 | 44.59098 | 11.14368 | 4924 ft | 272 kts | 316° |
| 2026-05-05 18:30 | 44.60733 | 11.12997 | 5931 ft | 280 kts | 338° |
| 2026-05-05 18:31 | 44.62675 | 11.12617 | 6873 ft | 288 kts | 2° |
| 2026-05-05 18:31 | 44.64630 | 11.13370 | 7754 ft | 297 kts | 26° |
| 2026-05-05 18:31 | 44.66240 | 11.15210 | 8637 ft | 304 kts | 52° |
| 2026-05-05 18:31 | 44.67255 | 11.17821 | 9526 ft | 307 kts | 67° |
| 2026-05-05 18:32 | 44.68119 | 11.20595 | 10316 ft | 315 kts | 67° |
| 2026-05-05 18:32 | 44.69031 | 11.23528 | 10629 ft | 340 kts | 67° |
| 2026-05-05 18:32 | 44.70006 | 11.26667 | 10920 ft | 360 kts | 67° |
| 2026-05-05 18:32 | 44.71022 | 11.29942 | 11567 ft | 369 kts | 66° |
| 2026-05-05 18:33 | 44.72046 | 11.33225 | 12298 ft | 374 kts | 66° |
| 2026-05-05 18:33 | 44.73104 | 11.36602 | 13052 ft | 380 kts | 66° |
| 2026-05-05 18:33 | 44.74185 | 11.40016 | 13783 ft | 385 kts | 65° |
| 2026-05-05 18:33 | 44.75321 | 11.43462 | 14411 ft | 390 kts | 65° |
| 2026-05-05 18:34 | 44.76491 | 11.46930 | 15086 ft | 394 kts | 65° |
| 2026-05-05 18:34 | 44.77681 | 11.50428 | 15743 ft | 398 kts | 65° |
| 2026-05-05 18:34 | 44.79003 | 11.53876 | 16379 ft | 403 kts | 56° |
| 2026-05-05 18:34 | 44.80797 | 11.56927 | 17004 ft | 407 kts | 43° |
| 2026-05-05 18:35 | 44.82995 | 11.59364 | 17631 ft | 410 kts | 30° |
| 2026-05-05 18:35 | 44.85558 | 11.61120 | 18237 ft | 411 kts | 16° |
| 2026-05-05 18:35 | 44.88333 | 11.62078 | 18778 ft | 410 kts | 3° |
| 2026-05-05 18:35 | 44.91180 | 11.62351 | 19347 ft | 411 kts | 359° |
| 2026-05-05 18:36 | 44.94048 | 11.62556 | 19928 ft | 415 kts | 358° |
| 2026-05-05 18:36 | 44.96941 | 11.62765 | 20520 ft | 418 kts | 358° |
| 2026-05-05 18:36 | 44.99854 | 11.62979 | 21114 ft | 421 kts | 358° |
| 2026-05-05 18:36 | 45.02750 | 11.63194 | 21690 ft | 424 kts | 358° |
| 2026-05-05 18:37 | 45.05706 | 11.63414 | 22254 ft | 427 kts | 358° |
| 2026-05-05 18:37 | 45.08683 | 11.63636 | 22809 ft | 430 kts | 358° |
| 2026-05-05 18:37 | 45.11677 | 11.63860 | 23340 ft | 433 kts | 358° |
| 2026-05-05 18:37 | 45.14677 | 11.63758 | 23811 ft | 430 kts | 348° |
| 2026-05-05 18:38 | 45.17605 | 11.63008 | 24239 ft | 426 kts | 339° |
| 2026-05-05 18:38 | 45.20418 | 11.61722 | 24682 ft | 425 kts | 335° |
| 2026-05-05 18:38 | 45.23225 | 11.60355 | 25089 ft | 428 kts | 335° |
| 2026-05-05 18:38 | 45.26056 | 11.58979 | 25463 ft | 432 kts | 335° |
| 2026-05-05 18:39 | 45.28910 | 11.57595 | 25854 ft | 434 kts | 335° |
| 2026-05-05 18:39 | 45.31736 | 11.56226 | 26241 ft | 436 kts | 335° |
| 2026-05-05 18:39 | 45.34614 | 11.54826 | 26633 ft | 439 kts | 334° |
| 2026-05-05 18:39 | 45.37508 | 11.53420 | 27016 ft | 441 kts | 334° |
| 2026-05-05 18:40 | 45.40355 | 11.51844 | 27394 ft | 437 kts | 327° |
| 2026-05-05 18:40 | 45.42977 | 11.49702 | 27784 ft | 432 kts | 319° |
| 2026-05-05 18:40 | 45.45308 | 11.47051 | 28157 ft | 426 kts | 310° |
| 2026-05-05 18:40 | 45.47385 | 11.44055 | 28526 ft | 426 kts | 308° |
| 2026-05-05 18:41 | 45.49455 | 11.41023 | 28871 ft | 428 kts | 308° |
| 2026-05-05 18:41 | 45.51535 | 11.37983 | 29215 ft | 430 kts | 308° |
| 2026-05-05 18:41 | 45.53600 | 11.34967 | 29531 ft | 431 kts | 308° |
| 2026-05-05 18:41 | 45.55703 | 11.31896 | 29833 ft | 433 kts | 308° |
| 2026-05-05 18:42 | 45.57812 | 11.28813 | 30111 ft | 435 kts | 308° |
| 2026-05-05 18:42 | 45.59925 | 11.25722 | 30372 ft | 436 kts | 308° |
| 2026-05-05 18:42 | 45.62050 | 11.22608 | 30651 ft | 438 kts | 308° |
| 2026-05-05 18:42 | 45.64176 | 11.19485 | 30904 ft | 439 kts | 308° |
| 2026-05-05 18:43 | 45.66299 | 11.16361 | 31170 ft | 439 kts | 307° |
| 2026-05-05 18:43 | 45.68427 | 11.13227 | 31450 ft | 438 kts | 308° |
| 2026-05-05 18:43 | 45.70514 | 11.10148 | 31795 ft | 437 kts | 307° |
| 2026-05-05 18:43 | 45.72627 | 11.07026 | 31964 ft | 435 kts | 307° |
| 2026-05-05 18:44 | 45.76769 | 11.00912 | 32002 ft | 423 kts | 307° |
| 2026-05-05 18:44 | 45.80849 | 10.94867 | 32004 ft | 421 kts | 307° |
| 2026-05-05 18:45 | 45.84888 | 10.88853 | 32018 ft | 421 kts | 306° |
| 2026-05-05 18:45 | 45.88968 | 10.82758 | 32012 ft | 426 kts | 307° |
| 2026-05-05 18:46 | 45.93077 | 10.76621 | 31991 ft | 425 kts | 307° |
| 2026-05-05 18:46 | 45.97180 | 10.70496 | 32010 ft | 425 kts | 307° |
| 2026-05-05 18:47 | 46.01281 | 10.64349 | 31986 ft | 426 kts | 307° |
| 2026-05-05 18:47 | 46.05353 | 10.58217 | 31979 ft | 427 kts | 307° |
| 2026-05-05 18:48 | 46.09463 | 10.52038 | 31970 ft | 428 kts | 307° |
| 2026-05-05 18:48 | 46.13583 | 10.45824 | 31966 ft | 429 kts | 307° |
| 2026-05-05 18:49 | 46.17979 | 10.39987 | 31992 ft | 436 kts | 314° |
| 2026-05-05 18:49 | 46.22667 | 10.34421 | 31967 ft | 437 kts | 314° |
| 2026-05-05 18:50 | 46.27362 | 10.28848 | 31963 ft | 437 kts | 314° |
| 2026-05-05 18:50 | 46.32057 | 10.23244 | 31947 ft | 437 kts | 314° |
| 2026-05-05 18:51 | 46.36754 | 10.17637 | 31942 ft | 438 kts | 314° |
| 2026-05-05 18:51 | 46.41415 | 10.12057 | 31949 ft | 438 kts | 313° |
| 2026-05-05 18:52 | 46.46071 | 10.06363 | 31986 ft | 434 kts | 308° |
| 2026-05-05 18:52 | 46.49668 | 9.99583 | 31977 ft | 418 kts | 292° |
| 2026-05-05 18:53 | 46.52456 | 9.92188 | 31970 ft | 418 kts | 292° |
| 2026-05-05 18:53 | 46.55241 | 9.84834 | 31973 ft | 418 kts | 292° |
| 2026-05-05 18:54 | 46.58040 | 9.77467 | 31953 ft | 416 kts | 292° |
| 2026-05-05 18:54 | 46.60834 | 9.70075 | 31973 ft | 418 kts | 291° |
| 2026-05-05 18:55 | 46.63614 | 9.62689 | 31958 ft | 419 kts | 291° |
| 2026-05-05 18:55 | 46.66410 | 9.55258 | 31931 ft | 418 kts | 291° |
| 2026-05-05 18:56 | 46.69188 | 9.47848 | 31906 ft | 416 kts | 291° |
| 2026-05-05 18:56 | 46.71957 | 9.40425 | 31911 ft | 418 kts | 291° |
| 2026-05-05 18:57 | 46.74730 | 9.32975 | 31944 ft | 418 kts | 291° |
| 2026-05-05 18:57 | 46.77488 | 9.25553 | 31922 ft | 419 kts | 291° |
| 2026-05-05 18:58 | 46.80253 | 9.18084 | 31915 ft | 418 kts | 291° |
| 2026-05-05 18:58 | 46.83007 | 9.10600 | 31939 ft | 419 kts | 291° |
| 2026-05-05 18:59 | 46.85781 | 9.03056 | 31672 ft | 425 kts | 291° |
| 2026-05-05 18:59 | 46.87179 | 8.99252 | 31428 ft | 425 kts | 292° |
| 2026-05-05 18:59 | 46.88578 | 8.95448 | 31180 ft | 425 kts | 292° |
| 2026-05-05 19:00 | 46.89951 | 8.91708 | 30932 ft | 423 kts | 292° |
| 2026-05-05 19:00 | 46.91339 | 8.87923 | 30685 ft | 421 kts | 292° |
| 2026-05-05 19:00 | 46.92804 | 8.84211 | 30448 ft | 425 kts | 299° |
| 2026-05-05 19:00 | 46.94735 | 8.80886 | 30195 ft | 434 kts | 310° |
| 2026-05-05 19:01 | 46.97130 | 8.78141 | 29935 ft | 443 kts | 322° |
| 2026-05-05 19:01 | 46.99916 | 8.76129 | 29649 ft | 450 kts | 334° |
| 2026-05-05 19:01 | 47.02954 | 8.74992 | 29230 ft | 454 kts | 347° |
| 2026-05-05 19:01 | 47.06096 | 8.74458 | 28572 ft | 452 kts | 349° |
| 2026-05-05 19:02 | 47.09195 | 8.73892 | 27979 ft | 446 kts | 348° |
| 2026-05-05 19:02 | 47.12238 | 8.73189 | 27386 ft | 440 kts | 346° |
| 2026-05-05 19:02 | 47.15189 | 8.72401 | 26813 ft | 435 kts | 345° |
| 2026-05-05 19:02 | 47.18149 | 8.71559 | 26243 ft | 431 kts | 345° |
| 2026-05-05 19:03 | 47.21076 | 8.70717 | 25691 ft | 427 kts | 345° |
| 2026-05-05 19:03 | 47.23977 | 8.69899 | 25151 ft | 423 kts | 346° |
| 2026-05-05 19:03 | 47.26828 | 8.68911 | 24610 ft | 417 kts | 339° |
| 2026-05-05 19:03 | 47.29497 | 8.67344 | 24088 ft | 411 kts | 332° |
| 2026-05-05 19:04 | 47.32079 | 8.65579 | 23594 ft | 406 kts | 332° |
| 2026-05-05 19:04 | 47.34602 | 8.63856 | 23072 ft | 403 kts | 332° |
| 2026-05-05 19:04 | 47.37122 | 8.62109 | 22596 ft | 397 kts | 329° |
| 2026-05-05 19:04 | 47.39481 | 8.60084 | 22107 ft | 391 kts | 325° |
| 2026-05-05 19:05 | 47.41755 | 8.57915 | 21612 ft | 385 kts | 318° |
| 2026-05-05 19:05 | 47.43660 | 8.55229 | 21138 ft | 376 kts | 306° |
| 2026-05-05 19:05 | 47.45128 | 8.52091 | 20649 ft | 367 kts | 294° |
| 2026-05-05 19:05 | 47.46123 | 8.48666 | 20193 ft | 359 kts | 283° |
| 2026-05-05 19:06 | 47.46646 | 8.45102 | 19720 ft | 353 kts | 275° |
| 2026-05-05 19:06 | 47.46981 | 8.41566 | 19276 ft | 350 kts | 275° |
| 2026-05-05 19:06 | 47.47319 | 8.38015 | 18890 ft | 346 kts | 275° |
| 2026-05-05 19:06 | 47.47656 | 8.34470 | 18606 ft | 351 kts | 275° |
| 2026-05-05 19:07 | 47.47996 | 8.30899 | 18239 ft | 350 kts | 275° |
| 2026-05-05 19:07 | 47.48333 | 8.27387 | 18058 ft | 339 kts | 275° |
| 2026-05-05 19:07 | 47.48661 | 8.24000 | 17920 ft | 326 kts | 275° |
| 2026-05-05 19:07 | 47.48975 | 8.20739 | 17782 ft | 315 kts | 275° |
| 2026-05-05 19:08 | 47.49277 | 8.17585 | 17654 ft | 305 kts | 275° |
| 2026-05-05 19:08 | 47.49565 | 8.14530 | 17515 ft | 295 kts | 274° |
| 2026-05-05 19:08 | 47.49841 | 8.11571 | 17368 ft | 286 kts | 274° |
| 2026-05-05 19:08 | 47.50108 | 8.08686 | 17108 ft | 282 kts | 274° |
| 2026-05-05 19:09 | 47.50370 | 8.05846 | 16942 ft | 275 kts | 274° |
| 2026-05-05 19:09 | 47.50507 | 8.03273 | 16818 ft | 265 kts | 265° |
| 2026-05-05 19:09 | 47.50335 | 8.00507 | 16678 ft | 255 kts | 258° |
| 2026-05-05 19:09 | 47.50037 | 7.97969 | 16553 ft | 247 kts | 256° |
| 2026-05-05 19:10 | 47.49710 | 7.95515 | 16358 ft | 241 kts | 256° |
| 2026-05-05 19:10 | 47.49388 | 7.93094 | 16107 ft | 239 kts | 256° |
| 2026-05-05 19:10 | 47.49081 | 7.90697 | 15841 ft | 237 kts | 256° |
| 2026-05-05 19:10 | 47.48550 | 7.88424 | 15581 ft | 232 kts | 239° |
| 2026-05-05 19:11 | 47.47552 | 7.86581 | 15310 ft | 230 kts | 221° |
| 2026-05-05 19:11 | 47.46211 | 7.85302 | 14950 ft | 235 kts | 203° |
| 2026-05-05 19:11 | 47.44537 | 7.84900 | 14480 ft | 258 kts | 180° |
| 2026-05-05 19:11 | 47.42758 | 7.85571 | 14094 ft | 273 kts | 158° |
| 2026-05-05 19:12 | 47.41248 | 7.87353 | 13709 ft | 287 kts | 133° |
| 2026-05-05 19:12 | 47.40373 | 7.90049 | 13281 ft | 300 kts | 105° |
| 2026-05-05 19:12 | 47.40431 | 7.93157 | 12931 ft | 308 kts | 74° |
| 2026-05-05 19:12 | 47.41457 | 7.95887 | 12893 ft | 307 kts | 46° |
| 2026-05-05 19:13 | 47.43115 | 7.97836 | 12902 ft | 305 kts | 27° |
| 2026-05-05 19:13 | 47.44964 | 7.99382 | 12908 ft | 306 kts | 27° |
| 2026-05-05 19:13 | 47.46814 | 8.00936 | 12917 ft | 306 kts | 27° |
| 2026-05-05 19:13 | 47.48666 | 8.02498 | 12917 ft | 306 kts | 27° |
| 2026-05-05 19:14 | 47.50488 | 8.04043 | 12908 ft | 307 kts | 30° |
| 2026-05-05 19:14 | 47.52074 | 8.06126 | 12899 ft | 308 kts | 56° |
| 2026-05-05 19:14 | 47.52922 | 8.08996 | 12904 ft | 304 kts | 82° |
| 2026-05-05 19:14 | 47.52981 | 8.12081 | 12900 ft | 298 kts | 103° |
| 2026-05-05 19:15 | 47.52371 | 8.14922 | 12603 ft | 287 kts | 123° |
| 2026-05-05 19:15 | 47.51209 | 8.17250 | 12271 ft | 278 kts | 142° |
| 2026-05-05 19:15 | 47.49685 | 8.18910 | 11942 ft | 267 kts | 159° |
| 2026-05-05 19:15 | 47.47974 | 8.19810 | 11615 ft | 258 kts | 175° |
| 2026-05-05 19:16 | 47.46218 | 8.19955 | 11293 ft | 250 kts | 190° |
| 2026-05-05 19:16 | 47.44547 | 8.19397 | 10984 ft | 244 kts | 205° |
| 2026-05-05 19:16 | 47.43091 | 8.18239 | 10908 ft | 241 kts | 218° |
| 2026-05-05 19:16 | 47.41872 | 8.16555 | 10912 ft | 241 kts | 231° |
| 2026-05-05 19:17 | 47.40994 | 8.14457 | 10915 ft | 242 kts | 245° |
| 2026-05-05 19:17 | 47.40487 | 8.12085 | 10917 ft | 244 kts | 254° |
| 2026-05-05 19:17 | 47.40158 | 8.09615 | 10914 ft | 245 kts | 257° |
| 2026-05-05 19:17 | 47.39893 | 8.07130 | 10914 ft | 246 kts | 258° |
| 2026-05-05 19:18 | 47.39643 | 8.04637 | 10913 ft | 245 kts | 258° |
| 2026-05-05 19:18 | 47.39388 | 8.02143 | 10914 ft | 246 kts | 258° |
| 2026-05-05 19:18 | 47.39127 | 7.99649 | 10916 ft | 246 kts | 257° |
| 2026-05-05 19:18 | 47.38860 | 7.97158 | 10916 ft | 246 kts | 257° |
| 2026-05-05 19:19 | 47.38592 | 7.94698 | 10916 ft | 246 kts | 258° |
| 2026-05-05 19:19 | 47.38515 | 7.92169 | 10909 ft | 249 kts | 272° |
| 2026-05-05 19:19 | 47.38958 | 7.89674 | 10908 ft | 257 kts | 289° |
| 2026-05-05 19:19 | 47.39960 | 7.87453 | 10909 ft | 266 kts | 308° |
| 2026-05-05 19:20 | 47.41468 | 7.85807 | 10906 ft | 276 kts | 329° |
| 2026-05-05 19:20 | 47.43341 | 7.85028 | 10905 ft | 286 kts | 351° |
| 2026-05-05 19:20 | 47.45301 | 7.85367 | 10899 ft | 286 kts | 18° |
| 2026-05-05 19:20 | 47.46956 | 7.86966 | 10900 ft | 288 kts | 47° |
| 2026-05-05 19:21 | 47.47958 | 7.89486 | 10905 ft | 285 kts | 77° |
| 2026-05-05 19:21 | 47.48089 | 7.92308 | 10907 ft | 276 kts | 106° |
| 2026-05-05 19:21 | 47.47350 | 7.94830 | 10904 ft | 263 kts | 136° |
| 2026-05-05 19:21 | 47.45962 | 7.96418 | 10906 ft | 248 kts | 166° |
| 2026-05-05 19:22 | 47.44321 | 7.96724 | 10905 ft | 235 kts | 194° |
| 2026-05-05 19:22 | 47.42758 | 7.96088 | 10913 ft | 233 kts | 202° |
| 2026-05-05 19:22 | 47.41226 | 7.95288 | 10916 ft | 234 kts | 203° |
| 2026-05-05 19:22 | 47.39631 | 7.94763 | 10915 ft | 240 kts | 182° |
| 2026-05-05 19:23 | 47.38011 | 7.95482 | 10912 ft | 253 kts | 153° |
| 2026-05-05 19:23 | 47.36794 | 7.97365 | 10911 ft | 267 kts | 124° |
| 2026-05-05 19:23 | 47.36289 | 8.00044 | 10910 ft | 279 kts | 94° |
| 2026-05-05 19:23 | 47.36672 | 8.02871 | 10912 ft | 286 kts | 69° |
| 2026-05-05 19:24 | 47.37529 | 8.05536 | 10919 ft | 288 kts | 64° |
| 2026-05-05 19:24 | 47.38450 | 8.08166 | 10917 ft | 289 kts | 64° |
| 2026-05-05 19:24 | 47.39380 | 8.10795 | 10916 ft | 289 kts | 64° |
| 2026-05-05 19:24 | 47.40311 | 8.13413 | 10914 ft | 288 kts | 64° |
| 2026-05-05 19:25 | 47.40973 | 8.16162 | 10905 ft | 283 kts | 88° |
| 2026-05-05 19:25 | 47.40989 | 8.19043 | 10915 ft | 281 kts | 97° |
| 2026-05-05 19:25 | 47.40874 | 8.21882 | 10915 ft | 281 kts | 98° |
| 2026-05-05 19:25 | 47.40741 | 8.24752 | 10914 ft | 280 kts | 98° |
| 2026-05-05 19:26 | 47.40604 | 8.27617 | 10911 ft | 279 kts | 98° |
| 2026-05-05 19:26 | 47.40462 | 8.30480 | 10913 ft | 280 kts | 99° |
| 2026-05-05 19:26 | 47.40289 | 8.33336 | 10906 ft | 277 kts | 106° |
| 2026-05-05 19:26 | 47.39623 | 8.35938 | 10909 ft | 268 kts | 121° |
| 2026-05-05 19:27 | 47.38750 | 8.38355 | 10913 ft | 267 kts | 123° |
| 2026-05-05 19:27 | 47.37851 | 8.40754 | 10914 ft | 267 kts | 123° |
| 2026-05-05 19:27 | 47.36952 | 8.43146 | 10915 ft | 267 kts | 124° |
| 2026-05-05 19:27 | 47.36202 | 8.45647 | 10739 ft | 270 kts | 106° |
| 2026-05-05 19:28 | 47.35926 | 8.48392 | 10432 ft | 271 kts | 99° |
| 2026-05-05 19:28 | 47.35742 | 8.51155 | 10093 ft | 270 kts | 99° |
| 2026-05-05 19:28 | 47.35575 | 8.53867 | 9799 ft | 268 kts | 98° |
| 2026-05-05 19:28 | 47.35410 | 8.56598 | 9477 ft | 267 kts | 98° |
| 2026-05-05 19:29 | 47.35242 | 8.59322 | 9134 ft | 266 kts | 98° |
| 2026-05-05 19:29 | 47.35074 | 8.62034 | 8798 ft | 265 kts | 98° |
| 2026-05-05 19:29 | 47.34903 | 8.64733 | 8460 ft | 264 kts | 98° |
| 2026-05-05 19:29 | 47.34727 | 8.67427 | 8116 ft | 263 kts | 99° |
| 2026-05-05 19:30 | 47.34550 | 8.70112 | 7755 ft | 263 kts | 99° |
| 2026-05-05 19:30 | 47.34373 | 8.72796 | 7407 ft | 263 kts | 98° |
| 2026-05-05 19:30 | 47.34192 | 8.75471 | 7087 ft | 261 kts | 98° |
| 2026-05-05 19:30 | 47.33986 | 8.78092 | 6829 ft | 256 kts | 98° |
| 2026-05-05 19:31 | 47.33771 | 8.80686 | 6509 ft | 254 kts | 98° |
| 2026-05-05 19:31 | 47.33716 | 8.83233 | 6379 ft | 245 kts | 81° |
| 2026-05-05 19:31 | 47.34099 | 8.85635 | 6234 ft | 237 kts | 75° |
| 2026-05-05 19:31 | 47.34604 | 8.87887 | 6036 ft | 232 kts | 59° |
| 2026-05-05 19:32 | 47.35694 | 8.89550 | 5973 ft | 220 kts | 25° |
| 2026-05-05 19:32 | 47.37051 | 8.90389 | 5972 ft | 207 kts | 15° |
| 2026-05-05 19:32 | 47.38410 | 8.91058 | 5735 ft | 205 kts | 14° |
| 2026-05-05 19:32 | 47.39769 | 8.91703 | 5508 ft | 205 kts | 14° |
| 2026-05-05 19:33 | 47.41131 | 8.92231 | 5259 ft | 199 kts | 356° |
| 2026-05-05 19:33 | 47.42387 | 8.91717 | 5033 ft | 184 kts | 317° |
| 2026-05-05 19:33 | 47.43159 | 8.90268 | 4983 ft | 179 kts | 287° |
| 2026-05-05 19:33 | 47.43377 | 8.88486 | 4984 ft | 180 kts | 274° |
| 2026-05-05 19:34 | 47.43509 | 8.86654 | 4983 ft | 180 kts | 275° |
| 2026-05-05 19:34 | 47.43644 | 8.84814 | 4982 ft | 180 kts | 275° |
| 2026-05-05 19:34 | 47.43779 | 8.82980 | 4983 ft | 180 kts | 275° |
| 2026-05-05 19:35 | 47.44049 | 8.79297 | 4673 ft | 179 kts | 275° |
| 2026-05-05 19:35 | 47.44183 | 8.77466 | 4433 ft | 179 kts | 275° |
| 2026-05-05 19:35 | 47.44317 | 8.75637 | 4172 ft | 179 kts | 273° |
| 2026-05-05 19:35 | 47.44450 | 8.73822 | 3911 ft | 177 kts | 273° |
| 2026-05-05 19:36 | 47.44582 | 8.72005 | 3651 ft | 178 kts | 273° |
| 2026-05-05 19:36 | 47.44711 | 8.70225 | 3425 ft | 174 kts | 273° |
| 2026-05-05 19:36 | 47.44837 | 8.68506 | 3147 ft | 161 kts | 273° |
| 2026-05-05 19:36 | 47.44950 | 8.66956 | 2924 ft | 144 kts | 273° |
| 2026-05-05 19:37 | 47.45052 | 8.65531 | 2716 ft | 136 kts | 273° |
| 2026-05-05 19:37 | 47.45150 | 8.64156 | 2513 ft | 134 kts | 273° |
| 2026-05-05 19:37 | 47.45244 | 8.62778 | 2348 ft | 134 kts | 274° |
| 2026-05-05 19:37 | 47.45345 | 8.61399 | 2129 ft | 136 kts | 275° |
| 2026-05-05 19:38 | 47.45447 | 8.60007 | 1910 ft | 136 kts | 275° |
| 2026-05-05 19:38 | 47.45548 | 8.58614 | 1699 ft | 137 kts | 274° |
| 2026-05-05 19:38 | 47.45650 | 8.57216 | 1491 ft | 137 kts | 273° |
| 2026-05-05 19:38 | 47.45740 | 8.55910 | 1410 ft | 108 kts | 275° |
| 2026-05-05 19:39 | 47.45787 | 8.55245 | 1397 ft | 31 kts | 276° |
| 2026-05-05 19:39 | 47.45808 | 8.54934 | 1387 ft | 20 kts | 272° |
| 2026-05-05 19:39 | 47.45718 | 8.54872 | 1392 ft | 17 kts | 159° |
| 2026-05-05 19:39 | 47.45606 | 8.54948 | 1399 ft | 19 kts | 155° |
| 2026-05-05 19:40 | 47.45523 | 8.55006 | 1396 ft | 4 kts | 155° |
| 2026-05-05 19:40 | 47.45515 | 8.55011 | 1399 ft | 0 kts | 155° |
| 2026-05-05 19:40 | 47.45507 | 8.55017 | 1399 ft | 6 kts | 151° |
| 2026-05-05 19:41 | 47.45457 | 8.55090 | 1401 ft | 12 kts | 127° |
| 2026-05-05 19:41 | 47.45413 | 8.55195 | 1402 ft | 12 kts | 119° |
| 2026-05-05 19:41 | 47.45398 | 8.55235 | 1405 ft | 1 kts | 118° |
| 2026-05-05 19:41 | 47.45397 | 8.55239 | 1404 ft | 2 kts | 118° |
| 2026-05-05 19:42 | 47.45379 | 8.55329 | 1400 ft | 13 kts | 77° |
| 2026-05-05 19:42 | 47.45440 | 8.55392 | 1404 ft | 9 kts | 26° |
| 2026-05-05 19:42 | 47.45495 | 8.55433 | 1406 ft | 11 kts | 26° |
| 2026-05-05 19:42 | 47.45525 | 8.55515 | 1405 ft | 10 kts | 95° |
| 2026-05-05 19:43 | 47.45516 | 8.55645 | 1412 ft | 14 kts | 96° |
| 2026-05-05 19:43 | 47.45506 | 8.55784 | 1411 ft | 13 kts | 95° |
| 2026-05-05 19:43 | 47.45498 | 8.55908 | 1407 ft | 7 kts | 96° |
| 2026-05-05 19:43 | 47.45479 | 8.55958 | 1409 ft | 5 kts | 166° |
| 2026-05-05 19:44 | 47.45444 | 8.55951 | 1407 ft | 5 kts | 186° |
| 2026-05-05 19:44 | 47.45417 | 8.55947 | 1407 ft | 1 kts | 186° |
| 2026-05-05 19:44 | 47.45411 | 8.55946 | 1407 ft | 0 kts | 186° |